createdAt,value
2017-02-11T00:00:00.432Z,19.08
2017-02-11T00:00:41.079Z,18.99
2017-02-11T00:01:21.705Z,19.05
2017-02-11T00:02:02.373Z,19.05
2017-02-11T00:02:42.992Z,19.05
2017-02-11T00:03:23.680Z,19.01
2017-02-11T00:04:04.314Z,18.99
2017-02-11T00:04:44.950Z,19.06
2017-02-11T00:05:25.649Z,19.11
2017-02-11T00:06:06.293Z,19.08
2017-02-11T00:06:46.914Z,19.08
2017-02-11T00:07:27.556Z,18.98
2017-02-11T00:08:08.234Z,18.98
2017-02-11T00:08:48.863Z,19.05
2017-02-11T00:09:29.601Z,19.01
2017-02-11T00:10:10.244Z,18.95
2017-02-11T00:10:50.889Z,18.97
2017-02-11T00:11:31.531Z,19.01
2017-02-11T00:12:12.223Z,19.01
2017-02-11T00:12:52.887Z,19.01
2017-02-11T00:13:33.532Z,19.01
2017-02-11T00:14:14.183Z,18.95
2017-02-11T00:14:54.875Z,18.99
2017-02-11T00:15:35.504Z,18.94
2017-02-11T00:16:16.130Z,19.11
2017-02-11T00:16:56.793Z,19.05
2017-02-11T00:17:37.434Z,19.1
2017-02-11T00:18:18.109Z,19.01
2017-02-11T00:18:58.757Z,18.95
2017-02-11T00:19:39.390Z,18.95
2017-02-11T00:20:20.015Z,18.95
2017-02-11T00:21:00.690Z,18.84
2017-02-11T00:21:41.330Z,18.91
2017-02-11T00:22:21.978Z,18.87
2017-02-11T00:23:02.604Z,18.91
2017-02-11T00:23:43.239Z,18.97
2017-02-11T00:24:23.859Z,18.94
2017-02-11T00:25:04.594Z,18.95
2017-02-11T00:25:45.225Z,18.98
2017-02-11T00:26:25.941Z,18.91
2017-02-11T00:27:06.580Z,18.91
2017-02-11T00:27:47.211Z,18.91
2017-02-11T00:28:27.919Z,18.97
2017-02-11T00:29:08.550Z,18.91
2017-02-11T00:29:49.271Z,18.92
2017-02-11T00:30:29.939Z,18.84
2017-02-11T00:31:10.572Z,18.91
2017-02-11T00:31:51.233Z,18.86
2017-02-11T00:32:31.875Z,18.91
2017-02-11T00:33:12.525Z,18.86
2017-02-11T00:33:53.185Z,18.87
2017-02-11T00:34:33.830Z,18.86
2017-02-11T00:35:14.468Z,18.82
2017-02-11T00:35:55.121Z,18.86
2017-02-11T00:36:35.752Z,18.86
2017-02-11T00:37:16.383Z,18.84
2017-02-11T00:37:57.056Z,18.83
2017-02-11T00:38:37.693Z,18.86
2017-02-11T00:39:18.335Z,18.92
2017-02-11T00:39:58.967Z,18.92
2017-02-11T00:40:39.607Z,18.9
2017-02-11T00:41:20.271Z,18.8
2017-02-11T00:42:00.946Z,18.79
2017-02-11T00:42:41.598Z,18.82
2017-02-11T00:43:22.324Z,18.87
2017-02-11T00:44:02.973Z,18.82
2017-02-11T00:44:43.654Z,18.9
2017-02-11T00:45:24.249Z,18.87
2017-02-11T00:46:04.895Z,18.9
2017-02-11T00:46:45.586Z,18.94
2017-02-11T00:47:26.208Z,18.92
2017-02-11T00:48:06.919Z,18.8
2017-02-11T00:48:47.602Z,18.77
2017-02-11T00:49:28.246Z,18.83
2017-02-11T00:50:08.939Z,18.91
2017-02-11T00:50:49.610Z,18.9
2017-02-11T00:51:30.246Z,18.92
2017-02-11T00:52:10.976Z,18.76
2017-02-11T00:52:51.607Z,18.8
2017-02-11T00:53:32.226Z,18.91
2017-02-11T00:54:12.933Z,18.8
2017-02-11T00:54:53.564Z,18.82
2017-02-11T00:55:34.236Z,18.79
2017-02-11T00:56:14.836Z,18.83
2017-02-11T00:56:55.485Z,18.82
2017-02-11T00:57:36.209Z,18.86
2017-02-11T00:58:16.873Z,18.82
2017-02-11T00:58:57.515Z,18.8
2017-02-11T00:59:38.192Z,18.87
2017-02-11T01:00:18.823Z,18.86
2017-02-11T01:00:59.458Z,18.82
2017-02-11T01:01:40.103Z,18.91
2017-02-11T01:02:20.753Z,18.9
2017-02-11T01:03:01.402Z,18.87
2017-02-11T01:03:42.084Z,18.84
2017-02-11T01:04:22.731Z,18.9
2017-02-11T01:05:03.363Z,18.82
2017-02-11T01:05:43.998Z,18.86
2017-02-11T01:06:24.631Z,18.8
2017-02-11T01:07:05.264Z,18.77
2017-02-11T01:07:45.933Z,18.8
2017-02-11T01:08:26.561Z,18.92
2017-02-11T01:09:07.241Z,18.77
2017-02-11T01:09:47.885Z,18.76
2017-02-11T01:10:28.526Z,18.82
2017-02-11T01:11:09.240Z,18.83
2017-02-11T01:11:49.933Z,18.92
2017-02-11T01:12:30.601Z,18.82
2017-02-11T01:13:11.301Z,18.83
2017-02-11T01:13:51.933Z,18.8
2017-02-11T01:14:32.625Z,18.82
2017-02-11T01:15:13.259Z,18.79
2017-02-11T01:15:53.894Z,18.86
2017-02-11T01:16:34.536Z,18.83
2017-02-11T01:17:15.175Z,18.79
2017-02-11T01:17:55.802Z,18.77
2017-02-11T01:18:36.498Z,18.77
2017-02-11T01:19:17.134Z,18.82
2017-02-11T01:19:57.784Z,18.77
2017-02-11T01:20:38.419Z,18.86
2017-02-11T01:21:19.056Z,18.82
2017-02-11T01:21:59.679Z,18.77
2017-02-11T01:22:40.359Z,18.82
2017-02-11T01:23:20.996Z,18.8
2017-02-11T01:24:01.640Z,18.83
2017-02-11T01:24:42.285Z,18.86
2017-02-11T01:25:22.904Z,18.84
2017-02-11T01:26:03.533Z,18.77
2017-02-11T01:26:44.296Z,18.86
2017-02-11T01:27:24.929Z,18.68
2017-02-11T01:28:05.644Z,18.79
2017-02-11T01:28:46.291Z,18.77
2017-02-11T01:29:26.967Z,18.83
2017-02-11T01:30:07.582Z,18.84
2017-02-11T01:30:48.218Z,18.76
2017-02-11T01:31:28.875Z,18.84
2017-02-11T01:32:09.542Z,18.79
2017-02-11T01:32:50.197Z,18.74
2017-02-11T01:33:30.869Z,18.8
2017-02-11T01:34:11.542Z,18.87
2017-02-11T01:34:52.198Z,18.74
2017-02-11T01:35:32.874Z,18.83
2017-02-11T01:36:13.507Z,18.82
2017-02-11T01:36:54.154Z,18.83
2017-02-11T01:37:34.795Z,18.76
2017-02-11T01:38:15.438Z,18.79
2017-02-11T01:38:56.068Z,18.77
2017-02-11T01:39:36.763Z,18.82
2017-02-11T01:40:17.393Z,18.73
2017-02-11T01:40:58.133Z,18.76
2017-02-11T01:41:38.756Z,18.7
2017-02-11T01:42:19.386Z,18.77
2017-02-11T01:43:00.104Z,18.74
2017-02-11T01:43:40.794Z,18.8
2017-02-11T01:44:21.498Z,18.73
2017-02-11T01:45:02.118Z,18.76
2017-02-11T01:45:42.750Z,18.77
2017-02-11T01:46:23.421Z,18.67
2017-02-11T01:47:04.068Z,18.77
2017-02-11T01:47:44.672Z,18.65
2017-02-11T01:48:25.365Z,18.7
2017-02-11T01:49:06.008Z,18.68
2017-02-11T01:49:46.684Z,18.68
2017-02-11T01:50:28.087Z,18.68
2017-02-11T01:51:08.711Z,18.68
2017-02-11T01:51:49.395Z,18.79
2017-02-11T01:52:30.033Z,18.72
2017-02-11T01:53:10.655Z,18.7
2017-02-11T01:53:51.335Z,18.62
2017-02-11T01:54:32.015Z,18.74
2017-02-11T01:55:12.608Z,18.77
2017-02-11T01:55:53.293Z,18.68
2017-02-11T01:56:34.018Z,18.74
2017-02-11T01:57:14.669Z,18.68
2017-02-11T01:57:55.315Z,18.68
2017-02-11T01:58:35.945Z,18.65
2017-02-11T01:59:16.576Z,18.64
2017-02-11T01:59:57.234Z,18.65
2017-02-11T02:00:37.866Z,18.65
2017-02-11T02:01:18.501Z,18.62
2017-02-11T02:01:59.165Z,18.61
2017-02-11T02:02:39.827Z,18.68
2017-02-11T02:03:20.455Z,18.68
2017-02-11T02:04:01.153Z,18.68
2017-02-11T02:04:41.840Z,18.7
2017-02-11T02:05:22.481Z,18.59
2017-02-11T02:06:03.111Z,18.61
2017-02-11T02:06:43.773Z,18.7
2017-02-11T02:07:24.397Z,18.64
2017-02-11T02:08:05.115Z,18.72
2017-02-11T02:08:45.752Z,18.67
2017-02-11T02:09:26.379Z,18.72
2017-02-11T02:10:06.999Z,18.67
2017-02-11T02:10:47.691Z,18.67
2017-02-11T02:11:28.328Z,18.65
2017-02-11T02:12:08.955Z,18.7
2017-02-11T02:12:49.617Z,18.65
2017-02-11T02:13:30.253Z,18.7
2017-02-11T02:14:10.885Z,18.72
2017-02-11T02:14:51.580Z,18.68
2017-02-11T02:15:32.216Z,18.64
2017-02-11T02:16:12.855Z,18.74
2017-02-11T02:16:53.507Z,18.8
2017-02-11T02:17:34.214Z,18.73
2017-02-11T02:18:14.865Z,18.67
2017-02-11T02:18:55.540Z,18.68
2017-02-11T02:19:36.160Z,18.67
2017-02-11T02:20:16.790Z,18.67
2017-02-11T02:20:57.479Z,18.64
2017-02-11T02:21:38.206Z,18.64
2017-02-11T02:22:18.835Z,18.72
2017-02-11T02:22:59.473Z,18.65
2017-02-11T02:23:40.138Z,18.7
2017-02-11T02:24:20.775Z,18.72
2017-02-11T02:25:01.405Z,18.64
2017-02-11T02:25:42.063Z,18.59
2017-02-11T02:26:22.697Z,18.64
2017-02-11T02:27:03.320Z,18.64
2017-02-11T02:27:43.999Z,18.61
2017-02-11T02:28:24.641Z,18.65
2017-02-11T02:29:05.292Z,18.67
2017-02-11T02:29:45.992Z,18.67
2017-02-11T02:30:26.615Z,18.57
2017-02-11T02:31:07.242Z,18.61
2017-02-11T02:31:47.959Z,18.59
2017-02-11T02:32:28.602Z,18.61
2017-02-11T02:33:09.229Z,18.64
2017-02-11T02:33:49.887Z,18.59
2017-02-11T02:34:30.604Z,18.61
2017-02-11T02:35:11.245Z,18.55
2017-02-11T02:35:51.905Z,18.62
2017-02-11T02:36:32.617Z,18.65
2017-02-11T02:37:13.282Z,18.64
2017-02-11T02:37:53.988Z,18.62
2017-02-11T02:38:34.632Z,18.7
2017-02-11T02:39:15.258Z,18.62
2017-02-11T02:39:55.887Z,18.62
2017-02-11T02:40:36.634Z,18.59
2017-02-11T02:41:17.252Z,18.65
2017-02-11T02:41:57.877Z,18.62
2017-02-11T02:42:38.528Z,18.61
2017-02-11T02:43:19.233Z,18.59
2017-02-11T02:43:59.880Z,18.49
2017-02-11T02:44:40.562Z,18.68
2017-02-11T02:45:21.188Z,18.57
2017-02-11T02:46:01.818Z,18.52
2017-02-11T02:46:42.496Z,18.59
2017-02-11T02:47:23.203Z,18.57
2017-02-11T02:48:03.827Z,18.55
2017-02-11T02:48:44.484Z,18.62
2017-02-11T02:49:25.130Z,18.49
2017-02-11T02:50:05.757Z,18.64
2017-02-11T02:50:46.395Z,18.54
2017-02-11T02:51:27.107Z,18.55
2017-02-11T02:52:07.734Z,18.59
2017-02-11T02:52:48.381Z,18.55
2017-02-11T02:53:29.104Z,18.55
2017-02-11T02:54:09.803Z,18.52
2017-02-11T02:54:50.392Z,18.55
2017-02-11T02:55:31.050Z,18.52
2017-02-11T02:56:11.680Z,18.52
2017-02-11T02:56:52.317Z,18.52
2017-02-11T02:57:32.965Z,18.57
2017-02-11T02:58:13.675Z,18.64
2017-02-11T02:58:54.318Z,18.55
2017-02-11T02:59:34.949Z,18.58
2017-02-11T03:00:15.609Z,18.55
2017-02-11T03:00:56.243Z,18.52
2017-02-11T03:01:36.978Z,18.54
2017-02-11T03:02:17.684Z,18.49
2017-02-11T03:02:58.315Z,18.55
2017-02-11T03:03:39.051Z,18.58
2017-02-11T03:04:19.783Z,18.54
2017-02-11T03:05:00.502Z,18.55
2017-02-11T03:05:41.137Z,18.52
2017-02-11T03:06:21.782Z,18.64
2017-02-11T03:07:02.483Z,18.54
2017-02-11T03:07:43.129Z,18.59
2017-02-11T03:08:23.871Z,18.52
2017-02-11T03:09:04.498Z,18.61
2017-02-11T03:09:45.180Z,18.49
2017-02-11T03:10:25.808Z,18.49
2017-02-11T03:11:06.454Z,18.55
2017-02-11T03:11:47.164Z,18.57
2017-02-11T03:12:27.822Z,18.54
2017-02-11T03:13:08.443Z,18.52
2017-02-11T03:13:49.128Z,18.57
2017-02-11T03:14:29.759Z,18.47
2017-02-11T03:15:10.481Z,18.5
2017-02-11T03:15:51.132Z,18.52
2017-02-11T03:16:31.775Z,18.55
2017-02-11T03:17:12.495Z,18.55
2017-02-11T03:17:53.185Z,18.55
2017-02-11T03:18:33.948Z,18.58
2017-02-11T03:19:14.593Z,18.52
2017-02-11T03:19:55.278Z,18.49
2017-02-11T03:20:35.972Z,18.59
2017-02-11T03:21:16.641Z,18.65
2017-02-11T03:21:57.294Z,18.52
2017-02-11T03:22:37.972Z,18.55
2017-02-11T03:23:18.720Z,18.58
2017-02-11T03:23:59.240Z,18.55
2017-02-11T03:24:39.949Z,18.58
2017-02-11T03:25:20.619Z,18.54
2017-02-11T03:26:01.272Z,18.54
2017-02-11T03:26:41.993Z,18.55
2017-02-11T03:27:22.610Z,18.57
2017-02-11T03:28:03.245Z,18.54
2017-02-11T03:28:43.929Z,18.55
2017-02-11T03:29:24.650Z,18.47
2017-02-11T03:30:05.272Z,18.54
2017-02-11T03:30:45.950Z,18.54
2017-02-11T03:31:26.644Z,18.67
2017-02-11T03:32:07.288Z,18.55
2017-02-11T03:32:47.906Z,18.55
2017-02-11T03:33:28.612Z,18.55
2017-02-11T03:34:09.231Z,18.57
2017-02-11T03:34:49.915Z,18.54
2017-02-11T03:35:30.568Z,18.59
2017-02-11T03:36:11.249Z,18.5
2017-02-11T03:36:51.897Z,18.46
2017-02-11T03:37:32.599Z,18.49
2017-02-11T03:38:13.330Z,18.5
2017-02-11T03:38:53.961Z,18.49
2017-02-11T03:39:34.604Z,18.47
2017-02-11T03:40:15.260Z,18.57
2017-02-11T03:40:55.889Z,18.54
2017-02-11T03:41:36.640Z,18.55
2017-02-11T03:42:17.285Z,18.57
2017-02-11T03:42:58.016Z,18.57
2017-02-11T03:43:38.644Z,18.46
2017-02-11T03:44:19.919Z,18.47
2017-02-11T03:45:00.569Z,18.5
2017-02-11T03:45:41.261Z,18.54
2017-02-11T03:46:22.033Z,18.52
2017-02-11T03:47:02.660Z,18.47
2017-02-11T03:47:43.318Z,18.49
2017-02-11T03:48:23.970Z,18.52
2017-02-11T03:49:04.595Z,18.52
2017-02-11T03:49:45.284Z,18.52
2017-02-11T03:50:25.976Z,18.43
2017-02-11T03:51:06.726Z,18.54
2017-02-11T03:51:47.370Z,18.46
2017-02-11T03:52:27.987Z,18.43
2017-02-11T03:53:08.678Z,18.49
2017-02-11T03:53:49.320Z,18.5
2017-02-11T03:54:29.952Z,18.54
2017-02-11T03:55:10.716Z,18.55
2017-02-11T03:55:51.355Z,18.52
2017-02-11T03:56:32.629Z,18.64
2017-02-11T03:57:13.275Z,18.5
2017-02-11T03:57:53.969Z,18.5
2017-02-11T03:58:34.668Z,18.5
2017-02-11T03:59:15.370Z,18.54
2017-02-11T03:59:56.008Z,18.46
2017-02-11T04:00:36.638Z,18.5
2017-02-11T04:01:17.334Z,18.43
2017-02-11T04:01:57.958Z,18.43
2017-02-11T04:02:39.481Z,18.42
2017-02-11T04:03:20.229Z,18.52
2017-02-11T04:04:00.774Z,18.47
2017-02-11T04:04:41.510Z,18.43
2017-02-11T04:05:22.221Z,18.4
2017-02-11T04:06:02.844Z,18.46
2017-02-11T04:06:43.491Z,18.47
2017-02-11T04:07:24.252Z,18.49
2017-02-11T04:08:04.885Z,18.47
2017-02-11T04:08:46.100Z,18.57
2017-02-11T04:09:26.726Z,18.54
2017-02-11T04:10:07.349Z,18.54
2017-02-11T04:10:47.976Z,18.59
2017-02-11T04:11:28.601Z,18.46
2017-02-11T04:12:12.029Z,18.43
2017-02-11T04:12:52.651Z,18.49
2017-02-11T04:13:33.292Z,18.46
2017-02-11T04:14:13.913Z,18.54
2017-02-11T04:14:54.544Z,18.46
2017-02-11T04:15:35.169Z,18.4
2017-02-11T04:16:15.812Z,18.52
2017-02-11T04:16:56.439Z,18.47
2017-02-11T04:17:37.132Z,18.42
2017-02-11T04:18:17.882Z,18.4
2017-02-11T04:18:58.542Z,18.5
2017-02-11T04:19:39.165Z,18.43
2017-02-11T04:20:19.893Z,18.55
2017-02-11T04:21:00.631Z,18.47
2017-02-11T04:21:41.275Z,18.44
2017-02-11T04:22:21.911Z,18.36
2017-02-11T04:23:02.661Z,18.4
2017-02-11T04:23:43.282Z,18.47
2017-02-11T04:24:23.987Z,18.43
2017-02-11T04:25:05.266Z,18.49
2017-02-11T04:25:45.899Z,18.44
2017-02-11T04:26:26.535Z,18.4
2017-02-11T04:27:07.173Z,18.43
2017-02-11T04:27:47.925Z,18.44
2017-02-11T04:28:28.647Z,18.4
2017-02-11T04:29:09.330Z,18.49
2017-02-11T04:29:49.957Z,18.44
2017-02-11T04:30:30.585Z,18.47
2017-02-11T04:31:11.225Z,18.46
2017-02-11T04:31:51.859Z,18.44
2017-02-11T04:32:32.503Z,18.39
2017-02-11T04:33:13.195Z,18.37
2017-02-11T04:33:53.825Z,18.39
2017-02-11T04:34:34.493Z,18.44
2017-02-11T04:35:15.209Z,18.37
2017-02-11T04:35:55.859Z,18.39
2017-02-11T04:36:36.526Z,18.39
2017-02-11T04:37:17.153Z,18.37
2017-02-11T04:37:57.773Z,18.46
2017-02-11T04:38:38.475Z,18.4
2017-02-11T04:39:19.099Z,18.44
2017-02-11T04:39:59.782Z,18.4
2017-02-11T04:40:40.340Z,18.49
2017-02-11T04:41:20.980Z,18.43
2017-02-11T04:42:01.618Z,18.43
2017-02-11T04:42:42.250Z,18.49
2017-02-11T04:43:23.016Z,18.52
2017-02-11T04:44:03.642Z,18.37
2017-02-11T04:44:44.269Z,18.4
2017-02-11T04:45:24.903Z,18.43
2017-02-11T04:46:05.610Z,18.46
2017-02-11T04:46:46.271Z,18.4
2017-02-11T04:47:26.975Z,18.44
2017-02-11T04:48:07.714Z,18.4
2017-02-11T04:48:48.341Z,18.4
2017-02-11T04:49:29.020Z,18.4
2017-02-11T04:50:09.753Z,18.4
2017-02-11T04:50:50.418Z,18.4
2017-02-11T04:51:31.049Z,18.47
2017-02-11T04:52:11.764Z,18.39
2017-02-11T04:52:52.391Z,18.4
2017-02-11T04:53:33.013Z,18.42
2017-02-11T04:54:14.434Z,18.4
2017-02-11T04:54:55.070Z,18.4
2017-02-11T04:55:35.830Z,18.39
2017-02-11T04:56:16.468Z,18.43
2017-02-11T04:56:57.193Z,18.47
2017-02-11T04:57:37.783Z,18.39
2017-02-11T04:58:18.406Z,18.44
2017-02-11T04:58:59.140Z,18.4
2017-02-11T04:59:39.787Z,18.39
2017-02-11T05:00:20.412Z,18.4
2017-02-11T05:01:01.097Z,18.42
2017-02-11T05:01:41.726Z,18.39
2017-02-11T05:02:22.358Z,18.46
2017-02-11T05:03:03.034Z,18.4
2017-02-11T05:03:43.689Z,18.52
2017-02-11T05:04:24.314Z,18.39
2017-02-11T05:05:04.948Z,18.37
2017-02-11T05:05:45.577Z,18.4
2017-02-11T05:06:26.264Z,18.42
2017-02-11T05:07:06.893Z,18.39
2017-02-11T05:07:47.537Z,18.36
2017-02-11T05:08:28.173Z,18.36
2017-02-11T05:09:08.838Z,18.36
2017-02-11T05:09:49.455Z,18.39
2017-02-11T05:10:30.084Z,18.47
2017-02-11T05:11:10.771Z,18.43
2017-02-11T05:11:51.403Z,18.44
2017-02-11T05:12:32.043Z,18.37
2017-02-11T05:13:12.742Z,18.37
2017-02-11T05:13:53.367Z,18.42
2017-02-11T05:14:34.073Z,18.42
2017-02-11T05:15:14.719Z,18.42
2017-02-11T05:15:55.348Z,18.43
2017-02-11T05:16:36.075Z,18.4
2017-02-11T05:17:16.704Z,18.44
2017-02-11T05:17:57.422Z,18.39
2017-02-11T05:18:38.072Z,18.42
2017-02-11T05:19:18.699Z,18.39
2017-02-11T05:19:59.376Z,18.36
2017-02-11T05:20:40.004Z,18.44
2017-02-11T05:21:20.638Z,18.37
2017-02-11T05:22:01.334Z,18.4
2017-02-11T05:22:41.964Z,18.27
2017-02-11T05:23:22.598Z,18.24
2017-02-11T05:24:03.237Z,18.33
2017-02-11T05:24:43.873Z,18.4
2017-02-11T05:25:24.557Z,18.39
2017-02-11T05:26:05.205Z,18.36
2017-02-11T05:26:45.831Z,18.29
2017-02-11T05:27:26.475Z,18.43
2017-02-11T05:28:07.134Z,18.39
2017-02-11T05:28:47.768Z,18.34
2017-02-11T05:29:28.402Z,18.39
2017-02-11T05:30:09.133Z,18.36
2017-02-11T05:30:49.748Z,18.31
2017-02-11T05:31:30.465Z,18.31
2017-02-11T05:32:11.134Z,18.39
2017-02-11T05:32:51.858Z,18.39
2017-02-11T05:33:32.510Z,18.43
2017-02-11T05:34:13.176Z,18.4
2017-02-11T05:34:53.814Z,18.37
2017-02-11T05:35:34.452Z,18.42
2017-02-11T05:36:15.081Z,18.37
2017-02-11T05:36:55.755Z,18.44
2017-02-11T05:37:36.398Z,18.28
2017-02-11T05:38:17.092Z,18.31
2017-02-11T05:38:57.750Z,18.29
2017-02-11T05:39:38.379Z,18.24
2017-02-11T05:40:18.999Z,18.29
2017-02-11T05:40:59.631Z,18.24
2017-02-11T05:41:40.260Z,18.29
2017-02-11T05:42:20.887Z,18.27
2017-02-11T05:43:01.591Z,18.31
2017-02-11T05:43:42.216Z,18.28
2017-02-11T05:44:22.851Z,18.29
2017-02-11T05:45:03.498Z,18.28
2017-02-11T05:45:44.124Z,18.29
2017-02-11T05:46:24.751Z,18.29
2017-02-11T05:47:05.428Z,18.28
2017-02-11T05:47:46.063Z,18.27
2017-02-11T05:48:26.699Z,18.21
2017-02-11T05:49:07.353Z,18.31
2017-02-11T05:49:47.982Z,18.31
2017-02-11T05:50:28.593Z,18.25
2017-02-11T05:51:09.332Z,18.29
2017-02-11T05:51:49.984Z,18.27
2017-02-11T05:52:30.617Z,18.28
2017-02-11T05:53:11.313Z,18.28
2017-02-11T05:53:52.012Z,18.29
2017-02-11T05:54:32.569Z,18.44
2017-02-11T05:55:13.234Z,18.27
2017-02-11T05:55:53.858Z,18.31
2017-02-11T05:56:34.478Z,18.29
2017-02-11T05:57:15.177Z,18.28
2017-02-11T05:57:55.806Z,18.28
2017-02-11T05:58:36.437Z,18.29
2017-02-11T05:59:17.111Z,18.31
2017-02-11T05:59:57.738Z,18.25
2017-02-11T06:00:38.369Z,18.28
2017-02-11T06:01:19.061Z,18.34
2017-02-11T06:01:59.694Z,18.31
2017-02-11T06:02:40.334Z,18.25
2017-02-11T06:03:20.980Z,18.31
2017-02-11T06:04:01.647Z,18.27
2017-02-11T06:04:42.283Z,18.36
2017-02-11T06:05:23.013Z,18.22
2017-02-11T06:06:03.722Z,18.28
2017-02-11T06:06:44.375Z,18.28
2017-02-11T06:07:25.088Z,18.25
2017-02-11T06:08:05.758Z,18.31
2017-02-11T06:08:46.450Z,18.36
2017-02-11T06:09:27.019Z,18.27
2017-02-11T06:10:07.675Z,18.31
2017-02-11T06:10:48.335Z,18.24
2017-02-11T06:11:28.973Z,18.34
2017-02-11T06:12:09.657Z,18.28
2017-02-11T06:12:50.367Z,18.33
2017-02-11T06:13:31.021Z,18.27
2017-02-11T06:14:11.734Z,18.31
2017-02-11T06:14:52.452Z,18.36
2017-02-11T06:15:33.085Z,18.27
2017-02-11T06:16:13.800Z,18.27
2017-02-11T06:16:54.452Z,18.27
2017-02-11T06:17:35.177Z,18.31
2017-02-11T06:18:15.834Z,18.36
2017-02-11T06:18:56.470Z,18.21
2017-02-11T06:19:37.141Z,18.28
2017-02-11T06:20:17.773Z,18.27
2017-02-11T06:20:58.391Z,18.27
2017-02-11T06:21:39.074Z,18.27
2017-02-11T06:22:19.717Z,18.27
2017-02-11T06:23:00.344Z,18.31
2017-02-11T06:23:41.121Z,18.29
2017-02-11T06:24:21.748Z,18.27
2017-02-11T06:25:02.471Z,18.22
2017-02-11T06:25:43.100Z,18.28
2017-02-11T06:26:23.774Z,18.28
2017-02-11T06:27:04.408Z,18.27
2017-02-11T06:27:45.024Z,18.28
2017-02-11T06:28:25.660Z,18.29
2017-02-11T06:29:06.339Z,18.25
2017-02-11T06:29:46.968Z,18.27
2017-02-11T06:30:27.686Z,18.25
2017-02-11T06:31:08.336Z,18.22
2017-02-11T06:31:48.982Z,18.31
2017-02-11T06:32:29.656Z,18.24
2017-02-11T06:33:10.296Z,18.22
2017-02-11T06:33:50.930Z,18.27
2017-02-11T06:34:31.611Z,18.31
2017-02-11T06:35:12.242Z,18.29
2017-02-11T06:35:52.883Z,18.31
2017-02-11T06:36:33.547Z,18.28
2017-02-11T06:37:14.189Z,18.28
2017-02-11T06:37:54.832Z,18.28
2017-02-11T06:38:35.451Z,18.34
2017-02-11T06:39:16.078Z,18.28
2017-02-11T06:39:56.699Z,18.28
2017-02-11T06:40:37.449Z,18.28
2017-02-11T06:41:18.087Z,18.31
2017-02-11T06:41:58.812Z,18.29
2017-02-11T06:42:39.475Z,18.27
2017-02-11T06:43:20.143Z,18.27
2017-02-11T06:44:00.800Z,18.27
2017-02-11T06:44:41.431Z,18.25
2017-02-11T06:45:22.154Z,18.28
2017-02-11T06:46:02.798Z,18.22
2017-02-11T06:46:43.431Z,18.25
2017-02-11T06:47:24.094Z,18.25
2017-02-11T06:48:04.731Z,18.27
2017-02-11T06:48:45.365Z,18.31
2017-02-11T06:49:26.059Z,18.29
2017-02-11T06:50:06.687Z,18.27
2017-02-11T06:50:47.331Z,18.25
2017-02-11T06:51:27.960Z,18.27
2017-02-11T06:52:08.599Z,18.27
2017-02-11T06:52:49.226Z,18.25
2017-02-11T06:53:29.908Z,18.27
2017-02-11T06:54:10.539Z,18.25
2017-02-11T06:54:51.165Z,18.27
2017-02-11T06:55:31.835Z,18.27
2017-02-11T06:56:12.468Z,18.25
2017-02-11T06:56:53.113Z,18.28
2017-02-11T06:57:33.790Z,18.22
2017-02-11T06:58:14.439Z,18.29
2017-02-11T06:58:55.189Z,18.28
2017-02-11T06:59:35.944Z,18.24
2017-02-11T07:00:16.604Z,18.25
2017-02-11T07:00:57.236Z,18.24
2017-02-11T07:01:37.856Z,18.19
2017-02-11T07:02:18.533Z,18.24
2017-02-11T07:02:59.157Z,18.19
2017-02-11T07:03:39.815Z,18.24
2017-02-11T07:04:20.502Z,18.25
2017-02-11T07:05:01.167Z,18.22
2017-02-11T07:05:41.921Z,18.19
2017-02-11T07:06:22.553Z,18.24
2017-02-11T07:07:03.210Z,18.27
2017-02-11T07:07:43.869Z,18.24
2017-02-11T07:08:24.495Z,18.27
2017-02-11T07:09:05.178Z,18.29
2017-02-11T07:09:45.797Z,18.28
2017-02-11T07:10:26.423Z,18.27
2017-02-11T07:11:07.058Z,18.33
2017-02-11T07:11:47.699Z,18.31
2017-02-11T07:12:28.343Z,18.28
2017-02-11T07:13:09.010Z,18.25
2017-02-11T07:13:49.667Z,18.29
2017-02-11T07:14:30.303Z,18.24
2017-02-11T07:15:10.981Z,18.27
2017-02-11T07:15:51.680Z,18.24
2017-02-11T07:16:32.299Z,18.21
2017-02-11T07:17:12.977Z,18.25
2017-02-11T07:17:53.602Z,18.21
2017-02-11T07:18:34.233Z,18.27
2017-02-11T07:19:14.902Z,18.22
2017-02-11T07:19:55.540Z,18.22
2017-02-11T07:20:36.182Z,18.31
2017-02-11T07:21:16.855Z,18.22
2017-02-11T07:21:57.484Z,18.22
2017-02-11T07:22:38.116Z,18.28
2017-02-11T07:23:18.868Z,18.15
2017-02-11T07:23:59.491Z,18.21
2017-02-11T07:24:40.197Z,18.12
2017-02-11T07:25:20.825Z,18.09
2017-02-11T07:26:01.521Z,18.19
2017-02-11T07:26:42.136Z,18.19
2017-02-11T07:27:22.826Z,18.12
2017-02-11T07:28:03.566Z,18.21
2017-02-11T07:28:44.226Z,18.15
2017-02-11T07:29:24.889Z,18.15
2017-02-11T07:30:05.585Z,18.15
2017-02-11T07:30:46.244Z,18.12
2017-02-11T07:31:26.907Z,18.1
2017-02-11T07:32:07.616Z,18.12
2017-02-11T07:32:48.260Z,18.09
2017-02-11T07:33:28.868Z,18.21
2017-02-11T07:34:09.566Z,18.19
2017-02-11T07:34:50.234Z,18.09
2017-02-11T07:35:30.872Z,18.1
2017-02-11T07:36:11.602Z,18.17
2017-02-11T07:36:52.365Z,18.19
2017-02-11T07:37:32.988Z,18.18
2017-02-11T07:38:13.636Z,18.18
2017-02-11T07:38:54.300Z,18.15
2017-02-11T07:39:34.931Z,18.21
2017-02-11T07:40:15.613Z,18.17
2017-02-11T07:40:56.343Z,18.22
2017-02-11T07:41:37.002Z,18.24
2017-02-11T07:42:17.641Z,18.24
2017-02-11T07:42:58.304Z,18.18
2017-02-11T07:43:38.955Z,18.19
2017-02-11T07:44:19.589Z,18.22
2017-02-11T07:45:00.277Z,18.1
2017-02-11T07:45:40.986Z,18.18
2017-02-11T07:46:21.614Z,18.17
2017-02-11T07:47:02.303Z,18.13
2017-02-11T07:47:43.043Z,18.09
2017-02-11T07:48:23.780Z,18.1
2017-02-11T07:49:04.425Z,18.21
2017-02-11T07:49:45.080Z,18.17
2017-02-11T07:50:25.700Z,18.15
2017-02-11T07:51:06.353Z,18.19
2017-02-11T07:51:46.997Z,18.22
2017-02-11T07:52:27.628Z,18.22
2017-02-11T07:53:08.253Z,18.22
2017-02-11T07:53:48.955Z,18.24
2017-02-11T07:54:29.648Z,18.24
2017-02-11T07:55:10.270Z,18.19
2017-02-11T07:55:50.913Z,18.18
2017-02-11T07:56:31.614Z,18.22
2017-02-11T07:57:12.261Z,18.19
2017-02-11T07:57:52.915Z,18.19
2017-02-11T07:58:33.613Z,18.28
2017-02-11T07:59:14.320Z,18.27
2017-02-11T07:59:54.891Z,18.18
2017-02-11T08:00:35.559Z,18.22
2017-02-11T08:01:16.253Z,18.21
2017-02-11T08:01:56.896Z,18.22
2017-02-11T08:02:37.546Z,18.21
2017-02-11T08:03:18.167Z,18.29
2017-02-11T08:03:58.798Z,18.18
2017-02-11T08:04:39.478Z,18.15
2017-02-11T08:05:20.110Z,18.15
2017-02-11T08:06:00.749Z,18.12
2017-02-11T08:06:41.407Z,18.09
2017-02-11T08:07:22.127Z,18.18
2017-02-11T08:08:02.771Z,18.1
2017-02-11T08:08:43.400Z,18.24
2017-02-11T08:09:24.087Z,18.21
2017-02-11T08:10:04.709Z,18.21
2017-02-11T08:10:45.335Z,18.21
2017-02-11T08:11:26.039Z,18.19
2017-02-11T08:12:06.664Z,18.12
2017-02-11T08:12:47.308Z,18.21
2017-02-11T08:13:27.988Z,18.18
2017-02-11T08:14:08.611Z,18.24
2017-02-11T08:14:49.239Z,18.19
2017-02-11T08:15:29.905Z,18.24
2017-02-11T08:16:10.545Z,18.17
2017-02-11T08:16:51.217Z,18.17
2017-02-11T08:17:31.892Z,18.1
2017-02-11T08:18:12.523Z,18.15
2017-02-11T08:18:53.155Z,18.13
2017-02-11T08:19:33.824Z,18.13
2017-02-11T08:20:14.457Z,18.21
2017-02-11T08:20:55.132Z,18.21
2017-02-11T08:21:35.775Z,18.17
2017-02-11T08:22:16.421Z,18.22
2017-02-11T08:22:57.043Z,18.21
2017-02-11T08:23:37.732Z,18.15
2017-02-11T08:24:18.455Z,18.15
2017-02-11T08:24:59.093Z,18.06
2017-02-11T08:25:39.732Z,18.19
2017-02-11T08:26:20.493Z,18.13
2017-02-11T08:27:01.137Z,18.18
2017-02-11T08:27:41.790Z,18.17
2017-02-11T08:28:22.497Z,18.1
2017-02-11T08:29:03.123Z,18.1
2017-02-11T08:29:43.766Z,18.13
2017-02-11T08:30:24.453Z,18.12
2017-02-11T08:31:05.089Z,18.12
2017-02-11T08:31:45.757Z,18.12
2017-02-11T08:32:26.498Z,18.1
2017-02-11T08:33:07.184Z,18.1
2017-02-11T08:33:47.835Z,18.13
2017-02-11T08:34:28.489Z,18.21
2017-02-11T08:35:09.146Z,18.13
2017-02-11T08:35:49.793Z,18.12
2017-02-11T08:36:30.446Z,18.25
2017-02-11T08:37:11.131Z,18.22
2017-02-11T08:37:51.785Z,18.06
2017-02-11T08:38:32.394Z,18.15
2017-02-11T08:39:13.103Z,18.13
2017-02-11T08:39:53.807Z,18.13
2017-02-11T08:40:34.465Z,18.22
2017-02-11T08:41:15.125Z,18.12
2017-02-11T08:41:55.917Z,18.12
2017-02-11T08:42:36.539Z,18.17
2017-02-11T08:43:17.197Z,18.12
2017-02-11T08:43:57.936Z,18.17
2017-02-11T08:44:38.627Z,18.07
2017-02-11T08:45:19.272Z,18.1